Time;durP1;ratioP1;P1;durP2;ratioP2;P2;SDS_P1;SDS_P2;PMS_P1;PMS_P2;Temp;Humidity;BMP_temperature;BMP_pressure;BME280_temperature;BME280_humidity;BME280_pressure;Samples;Min_cycle;Max_cycle;Signal;HPM_P1;HPM_P2
2022/10/10 00:01:57;;;;;;;;;;;;;;;;;;5010203;28;19926;-74
2022/10/10 00:04:24;;;;;;;;;;;;;;;;;;4992627;28;19976;-76
2022/10/10 00:06:51;;;;;;;;;;;;;;;;;;4992313;28;20491;-77
2022/10/10 00:09:17;;;;;;;;;;;;;;;;;;4992425;28;19930;-76
2022/10/10 00:11:44;;;;;;;;;;;;;;;;;;4992217;28;19980;-73
2022/10/10 00:14:10;;;;;;;;;;;;;;;;;;4992380;28;19937;-74
2022/10/10 00:16:36;;;;;;;;;;;;;;;;;;4992668;28;20409;-78
2022/10/10 00:19:03;;;;;;;;;;;;;;;;;;4992798;28;20453;-74
2022/10/10 00:21:31;;;;;;;;;;;;;;;;;;4995292;28;19985;-74
2022/10/10 00:23:57;;;;;;;;;;;;;;;;;;4996346;28;19979;-75
2022/10/10 00:26:24;;;;;;;;;;;;;;;;;;4995985;28;19972;-75
2022/10/10 00:28:50;;;;;;;;;;;;;;;;;;4996110;28;19926;-74
2022/10/10 00:31:17;;;;;;;;;;;;;;;;;;4995467;28;19932;-73
2022/10/10 00:33:44;;;;;;;;;;;;;;;;;;4995930;28;20307;-76
2022/10/10 00:36:10;;;;;;;;;;;;;;;;;;4995830;28;20021;-76
2022/10/10 00:38:38;;;;;;;;;;;;;;;;;;4995796;28;19933;-76
2022/10/10 00:41:05;;;;;;;;;;;;;;;;;;4995853;28;19932;-74
2022/10/10 00:43:32;;;;;;;;;;;;;;;;;;4996031;28;19926;-74
2022/10/10 00:45:58;;;;;;;;;;;;;;;;;;4995790;28;20303;-75
2022/10/10 00:48:25;;;;;;;;;;;;;;;;;;4995706;28;19925;-76
2022/10/10 00:50:54;;;;;;;;;;;;;;;;;;4995609;28;19955;-76
2022/10/10 00:53:22;;;;;;;;;;;;;;;;;;4995636;28;19933;-76
2022/10/10 00:55:50;;;;;;;;;;;;;;;;;;4995858;28;19976;-77
2022/10/10 00:58:17;;;;;;;;;;;;;;;;;;4996121;28;19926;-75
2022/10/10 01:00:43;;;;;;;;;;;;;;;;;;4995907;28;20020;-77
2022/10/10 01:03:10;;;;;;;;;;;;;;;;;;5007332;28;19988;-78
2022/10/10 01:05:37;;;;;;;;;;;;;;;;;;5015241;28;19972;-77
2022/10/10 01:08:04;;;;;;;;;;;;;;;;;;5015392;28;19926;-75
2022/10/10 01:10:33;;;;;;;;;;;;;;;;;;5015707;28;19969;-77
2022/10/10 01:13:09;;;;;;;;;;;;;;;;;;5014719;28;19929;-76
2022/10/10 01:15:42;;;;;;;;;;;;;;;;;;5014518;28;20016;-77
2022/10/10 01:18:13;;;;;;;;;;;;;;;;;;5014789;28;19965;-76
2022/10/10 01:20:48;;;;;;;;;;;;;;;;;;5014896;28;19976;-77
2022/10/10 01:23:34;;;;;;;;;;;;;;;;;;5015134;28;20587;-76
2022/10/10 01:26:05;;;;;;;;;;;;;;;;;;5014532;28;19926;-76
2022/10/10 01:28:38;;;;;;;;;;;;;;;;;;5014335;28;20503;-76
2022/10/10 01:31:06;;;;;;;;;;;;;;;;;;5020776;28;19953;-76
2022/10/10 01:33:34;;;;;;;;;;;;;;;;;;5014342;28;19925;-76
2022/10/10 01:36:04;;;;;;;;;;;;;;;;;;5014480;28;20020;-76
2022/10/10 01:38:35;;;;;;;;;;;;;;;;;;5014129;28;20017;-76
2022/10/10 01:41:04;;;;;;;;;;;;;;;;;;5014511;28;20013;-76
2022/10/10 01:43:30;;;;;;;;;;;;;;;;;;5014464;28;20023;-76
2022/10/10 01:45:58;;;;;;;;;;;;;;;;;;5014118;28;19932;-76
2022/10/10 01:48:27;;;;;;;;;;;;;;;;;;5012496;28;20012;-76
2022/10/10 01:51:01;;;;;;;;;;;;;;;;;;4973055;28;19933;-76
2022/10/10 01:53:32;;;;;;;;;;;;;;;;;;4975218;28;20013;-76
2022/10/10 01:56:03;;;;;;;;;;;;;;;;;;4974887;28;20381;-76
2022/10/10 01:58:38;;;;;;;;;;;;;;;;;;4975079;28;19937;-76
2022/10/10 02:01:09;;;;;;;;;;;;;;;;;;4974588;28;20010;-76
2022/10/10 02:03:38;;;;;;;;;;;;;;;;;;5004638;28;19973;-76
2022/10/10 02:06:07;;;;;;;;;;;;;;;;;;5013897;28;20033;-76
2022/10/10 02:08:34;;;;;;;;;;;;;;;;;;5013754;28;19926;-76
2022/10/10 02:11:02;;;;;;;;;;;;;;;;;;5013624;28;19929;-76
2022/10/10 02:13:31;;;;;;;;;;;;;;;;;;5013445;28;20016;-76
2022/10/10 02:15:59;;;;;;;;;;;;;;;;;;5013500;28;20357;-76
2022/10/10 02:18:29;;;;;;;;;;;;;;;;;;5013713;28;19933;-76
2022/10/10 02:20:55;;;;;;;;;;;;;;;;;;5013525;28;19936;-75
2022/10/10 02:23:22;;;;;;;;;;;;;;;;;;5014481;28;20427;-78
2022/10/10 02:25:51;;;;;;;;;;;;;;;;;;5013297;28;20285;-76
2022/10/10 02:28:21;;;;;;;;;;;;;;;;;;5013217;28;20296;-76
2022/10/10 02:30:49;;;;;;;;;;;;;;;;;;5013377;28;19925;-76
2022/10/10 02:33:17;;;;;;;;;;;;;;;;;;5013078;28;20398;-76
2022/10/10 02:35:47;;;;;;;;;;;;;;;;;;5013694;28;19925;-75
2022/10/10 02:38:15;;;;;;;;;;;;;;;;;;5013575;28;19925;-76
2022/10/10 02:40:42;;;;;;;;;;;;;;;;;;5013560;28;19929;-77
2022/10/10 02:43:09;;;;;;;;;;;;;;;;;;5012739;28;19925;-76
2022/10/10 02:45:36;;;;;;;;;;;;;;;;;;5013585;28;20012;-77
2022/10/10 02:48:03;;;;;;;;;;;;;;;;;;5013926;28;19925;-77
2022/10/10 02:50:30;;;;;;;;;;;;;;;;;;5014268;28;20281;-77
2022/10/10 02:52:58;;;;;;;;;;;;;;;;;;5013652;28;19925;-77
2022/10/10 02:55:24;;;;;;;;;;;;;;;;;;5013885;28;19929;-77
2022/10/10 02:57:51;;;;;;;;;;;;;;;;;;5013729;28;19935;-77
2022/10/10 03:00:18;;;;;;;;;;;;;;;;;;5014001;28;19931;-77
2022/10/10 03:02:45;;;;;;;;;;;;;;;;;;5005008;28;19925;-77
2022/10/10 03:05:11;;;;;;;;;;;;;;;;;;4993885;28;19929;-77
2022/10/10 03:07:37;;;;;;;;;;;;;;;;;;4993683;28;20016;-77
2022/10/10 03:10:06;;;;;;;;;;;;;;;;;;4993533;28;19942;-77
2022/10/10 03:12:32;;;;;;;;;;;;;;;;;;4993355;28;20025;-77
2022/10/10 03:14:59;;;;;;;;;;;;;;;;;;4993498;28;20016;-77
2022/10/10 03:17:25;;;;;;;;;;;;;;;;;;4993430;28;19925;-77
2022/10/10 03:19:51;;;;;;;;;;;;;;;;;;4993313;28;19948;-77
2022/10/10 03:22:18;;;;;;;;;;;;;;;;;;4993050;28;19925;-77
2022/10/10 03:24:44;;;;;;;;;;;;;;;;;;4993951;28;19925;-77
2022/10/10 03:27:12;;;;;;;;;;;;;;;;;;4993292;28;19969;-77
2022/10/10 03:29:38;;;;;;;;;;;;;;;;;;4992716;28;20292;-76
2022/10/10 03:32:05;;;;;;;;;;;;;;;;;;4992655;28;19926;-76
2022/10/10 03:34:31;;;;;;;;;;;;;;;;;;4992704;28;19930;-76
2022/10/10 03:36:58;;;;;;;;;;;;;;;;;;4992895;28;19926;-77
2022/10/10 03:39:24;;;;;;;;;;;;;;;;;;4992928;28;19932;-77
2022/10/10 03:41:50;;;;;;;;;;;;;;;;;;4992566;28;19936;-77
2022/10/10 03:44:18;;;;;;;;;;;;;;;;;;4992698;28;20012;-77
2022/10/10 03:46:45;;;;;;;;;;;;;;;;;;4992470;28;19925;-78
2022/10/10 03:49:11;;;;;;;;;;;;;;;;;;4993741;28;19930;-77
2022/10/10 03:51:38;;;;;;;;;;;;;;;;;;4993368;28;20016;-77
2022/10/10 03:54:04;;;;;;;;;;;;;;;;;;4994491;28;19926;-77
2022/10/10 03:56:31;;;;;;;;;;;;;;;;;;4997576;28;19936;-77
2022/10/10 03:58:59;;;;;;;;;;;;;;;;;;4997899;28;20037;-77
2022/10/10 04:01:27;;;;;;;;;;;;;;;;;;4997518;28;19932;-77
2022/10/10 04:03:53;;;;;;;;;;;;;;;;;;5014809;28;19929;-77
2022/10/10 04:06:20;;;;;;;;;;;;;;;;;;5017130;28;19929;-76
2022/10/10 04:08:46;;;;;;;;;;;;;;;;;;5016917;28;19932;-77
2022/10/10 04:11:13;;;;;;;;;;;;;;;;;;5016608;28;19935;-77
2022/10/10 04:13:40;;;;;;;;;;;;;;;;;;5016674;28;19925;-77
2022/10/10 04:16:06;;;;;;;;;;;;;;;;;;5016354;28;20024;-77
2022/10/10 04:18:34;;;;;;;;;;;;;;;;;;5016375;28;20424;-77
2022/10/10 04:21:01;;;;;;;;;;;;;;;;;;5016460;28;19925;-76
2022/10/10 04:23:28;;;;;;;;;;;;;;;;;;5016139;28;19931;-74
2022/10/10 04:25:54;;;;;;;;;;;;;;;;;;5015820;28;19937;-76
2022/10/10 04:28:20;;;;;;;;;;;;;;;;;;5015580;28;20634;-76
2022/10/10 04:30:47;;;;;;;;;;;;;;;;;;5016115;28;19932;-76
2022/10/10 04:33:14;;;;;;;;;;;;;;;;;;5015321;28;19972;-75
2022/10/10 04:35:41;;;;;;;;;;;;;;;;;;5015556;28;19926;-77
2022/10/10 04:38:08;;;;;;;;;;;;;;;;;;5015337;28;20027;-76
2022/10/10 04:40:36;;;;;;;;;;;;;;;;;;5015541;28;20028;-76
2022/10/10 04:43:02;;;;;;;;;;;;;;;;;;5015212;28;19937;-75
2022/10/10 04:45:29;;;;;;;;;;;;;;;;;;5015500;28;20385;-73
2022/10/10 04:47:55;;;;;;;;;;;;;;;;;;5015406;28;19934;-77
2022/10/10 04:50:22;;;;;;;;;;;;;;;;;;5015715;28;19936;-75
2022/10/10 04:52:50;;;;;;;;;;;;;;;;;;5014681;28;20019;-74
2022/10/10 04:55:16;;;;;;;;;;;;;;;;;;5014845;28;20297;-77
2022/10/10 04:57:43;;;;;;;;;;;;;;;;;;5014833;28;20447;-74
2022/10/10 05:00:10;;;;;;;;;;;;;;;;;;5015264;28;19965;-76
2022/10/10 05:02:36;;;;;;;;;;;;;;;;;;5008734;28;20366;-78
2022/10/10 05:05:03;;;;;;;;;;;;;;;;;;4996445;28;19984;-77
2022/10/10 05:07:29;;;;;;;;;;;;;;;;;;4995530;28;19932;-77
2022/10/10 05:09:57;;;;;;;;;;;;;;;;;;4997205;28;20020;-77
2022/10/10 05:12:24;;;;;;;;;;;;;;;;;;4996324;28;19925;-78
2022/10/10 05:14:51;;;;;;;;;;;;;;;;;;4996351;28;19926;-77
2022/10/10 05:17:18;;;;;;;;;;;;;;;;;;4996542;28;19972;-76
2022/10/10 05:19:44;;;;;;;;;;;;;;;;;;4995346;28;19976;-76
2022/10/10 05:22:12;;;;;;;;;;;;;;;;;;4996394;28;20394;-79
2022/10/10 05:24:39;;;;;;;;;;;;;;;;;;4996653;28;19933;-76
2022/10/10 05:27:06;;;;;;;;;;;;;;;;;;4996882;28;19926;-76
2022/10/10 05:29:33;;;;;;;;;;;;;;;;;;4995278;28;19936;-77
2022/10/10 05:31:59;;;;;;;;;;;;;;;;;;4994534;28;19980;-76
2022/10/10 05:34:26;;;;;;;;;;;;;;;;;;4995644;28;20016;-76
2022/10/10 05:36:55;;;;;;;;;;;;;;;;;;4996424;28;20013;-78
2022/10/10 05:39:21;;;;;;;;;;;;;;;;;;4994877;28;20505;-76
2022/10/10 05:41:48;;;;;;;;;;;;;;;;;;4994420;28;19926;-78
2022/10/10 05:44:16;;;;;;;;;;;;;;;;;;4994765;28;19969;-77
2022/10/10 05:46:42;;;;;;;;;;;;;;;;;;4994506;28;19936;-77
2022/10/10 05:49:08;;;;;;;;;;;;;;;;;;4994694;28;19925;-77
2022/10/10 05:51:35;;;;;;;;;;;;;;;;;;4994427;28;20024;-77
2022/10/10 05:54:02;;;;;;;;;;;;;;;;;;4994473;28;20374;-76
2022/10/10 05:56:28;;;;;;;;;;;;;;;;;;4994395;28;19926;-76
2022/10/10 05:58:54;;;;;;;;;;;;;;;;;;4994805;28;19926;-77
2022/10/10 06:01:22;;;;;;;;;;;;;;;;;;4994468;28;19926;-77
2022/10/10 06:03:54;;;;;;;;;;;;;;;;;;5011500;28;20397;-77
2022/10/10 06:06:21;;;;;;;;;;;;;;;;;;5014891;28;19925;-77
2022/10/10 06:08:47;;;;;;;;;;;;;;;;;;5014820;28;19973;-77
2022/10/10 06:11:16;;;;;;;;;;;;;;;;;;5014816;28;19931;-77
2022/10/10 06:13:42;;;;;;;;;;;;;;;;;;5013963;28;19925;-78
2022/10/10 06:16:09;;;;;;;;;;;;;;;;;;5013613;28;19926;-77
2022/10/10 06:18:37;;;;;;;;;;;;;;;;;;5014074;28;20009;-76
2022/10/10 06:21:04;;;;;;;;;;;;;;;;;;5013876;28;19976;-76
2022/10/10 06:23:31;;;;;;;;;;;;;;;;;;5013589;28;20393;-77
2022/10/10 06:25:57;;;;;;;;;;;;;;;;;;5014300;28;20012;-74
2022/10/10 06:28:23;;;;;;;;;;;;;;;;;;5013935;28;19926;-76
2022/10/10 06:30:50;;;;;;;;;;;;;;;;;;5014598;28;20016;-74
2022/10/10 06:33:18;;;;;;;;;;;;;;;;;;5013697;28;19984;-77
2022/10/10 06:35:46;;;;;;;;;;;;;;;;;;5013704;28;20337;-76
2022/10/10 06:38:14;;;;;;;;;;;;;;;;;;5013746;28;20343;-77
2022/10/10 06:40:40;;;;;;;;;;;;;;;;;;5013818;28;19947;-75
2022/10/10 06:43:10;;;;;;;;;;;;;;;;;;5013422;28;19925;-76
2022/10/10 06:45:36;;;;;;;;;;;;;;;;;;5013908;28;20012;-76
2022/10/10 06:48:03;;;;;;;;;;;;;;;;;;5013316;28;19937;-75
2022/10/10 06:50:30;;;;;;;;;;;;;;;;;;5014191;28;19926;-76
2022/10/10 06:52:57;;;;;;;;;;;;;;;;;;5012849;28;19926;-76
2022/10/10 06:55:24;;;;;;;;;;;;;;;;;;5013065;28;19947;-77
2022/10/10 06:57:50;;;;;;;;;;;;;;;;;;5013286;28;19929;-77
2022/10/10 07:00:18;;;;;;;;;;;;;;;;;;5050474;22;20098;-51
2022/10/10 07:02:45;;;;;;;;;;;;;;;;;;5018511;28;19985;-53
2022/10/10 07:05:12;;;;;;;;;;;;;;;;;;5018589;28;19926;-53
2022/10/10 07:07:39;;;;;;;;;;;;;;;;;;5013963;28;19942;-52
2022/10/10 07:10:08;;;;;;;;;;;;;;;;;;4995513;28;19930;-53
2022/10/10 07:12:34;;;;;;;;;;;;;;;;;;4996800;28;20395;-51
2022/10/10 07:15:01;;;;;;;;;;;;;;;;;;4996945;28;20661;-53
2022/10/10 07:17:27;;;;;;;;;;;;;;;;;;4997035;28;19976;-52
2022/10/10 07:19:54;;;;;;;;;;;;;;;;;;4996022;28;19949;-50
2022/10/10 07:22:20;;;;;;;;;;;;;;;;;;4996828;28;19976;-52
2022/10/10 07:24:47;;;;;;;;;;;;;;;;;;4997076;28;19926;-51
2022/10/10 07:27:15;;;;;;;;;;;;;;;;;;4996889;28;19951;-53
2022/10/10 07:29:41;;;;;;;;;;;;;;;;;;4996631;28;19929;-51
2022/10/10 07:32:08;;;;;;;;;;;;;;;;;;4997458;28;19995;-50
2022/10/10 07:34:36;;;;;;;;;;;;;;;;;;4996984;28;19930;-49
2022/10/10 07:37:03;;;;;;;;;;;;;;;;;;4997227;28;19937;-52
2022/10/10 07:39:30;;;;;;;;;;;;;;;;;;4997010;28;20008;-53
2022/10/10 07:41:56;;;;;;;;;;;;;;;;;;4996166;28;19926;-51
2022/10/10 07:44:24;;;;;;;;;;;;;;;;;;4997235;28;20000;-50
2022/10/10 07:46:51;;;;;;;;;;;;;;;;;;4996003;28;19930;-52
2022/10/10 07:49:17;;;;;;;;;;;;;;;;;;4996158;28;19926;-51
2022/10/10 07:51:44;;;;;;;;;;;;;;;;;;4996665;28;19988;-53
2022/10/10 07:54:11;;;;;;;;;;;;;;;;;;5006707;28;19932;-52
2022/10/10 07:56:37;;;;;;;;;;;;;;;;;;5005992;28;19926;-49
2022/10/10 07:59:04;;;;;;;;;;;;;;;;;;4997748;28;20413;-51
2022/10/10 08:01:31;;;;;;;;;;;;;;;;;;4995905;28;19925;-54
2022/10/10 08:03:58;;;;;;;;;;;;;;;;;;5014518;28;20365;-52
2022/10/10 08:06:24;;;;;;;;;;;;;;;;;;5016386;28;20367;-51
2022/10/10 08:08:51;;;;;;;;;;;;;;;;;;5015855;28;19940;-51
2022/10/10 08:11:18;;;;;;;;;;;;;;;;;;5016145;28;19976;-52
2022/10/10 08:13:44;;;;;;;;;;;;;;;;;;5015559;28;20338;-52
2022/10/10 08:16:11;;;;;;;;;;;;;;;;;;5015915;28;19925;-48
2022/10/10 08:18:39;;;;;;;;;;;;;;;;;;5015960;28;19929;-51
2022/10/10 08:21:06;;;;;;;;;;;;;;;;;;5015922;28;19948;-49
2022/10/10 08:23:33;;;;;;;;;;;;;;;;;;5015744;28;19926;-52
2022/10/10 08:25:59;;;;;;;;;;;;;;;;;;5015706;28;19925;-52
2022/10/10 08:28:26;;;;;;;;;;;;;;;;;;5016197;28;19956;-49
2022/10/10 08:30:53;;;;;;;;;;;;;;;;;;5015322;28;19925;-48
2022/10/10 08:33:19;;;;;;;;;;;;;;;;;;5015830;28;19926;-51
2022/10/10 08:35:47;;;;;;;;;;;;;;;;;;5016287;28;19972;-48
2022/10/10 08:38:14;;;;;;;;;;;;;;;;;;5015887;28;19980;-51
2022/10/10 08:40:45;;;;;;;;;;;;;;;;;;5015788;28;19926;-50
2022/10/10 08:43:17;;;;;;;;;;;;;;;;;;5018010;28;20352;-52
2022/10/10 08:45:44;;;;;;;;;;;;;;;;;;5018772;28;19925;-52
2022/10/10 08:48:12;;;;;;;;;;;;;;;;;;5010774;28;19976;-53
2022/10/10 08:50:40;;;;;;;;;;;;;;;;;;5009637;28;19926;-52
2022/10/10 08:53:12;;;;;;;;;;;;;;;;;;4998030;28;20406;-53
2022/10/10 08:55:41;;;;;;;;;;;;;;;;;;4994981;28;19929;-52
2022/10/10 08:58:12;;;;;;;;;;;;;;;;;;4994747;28;19973;-48
2022/10/10 09:00:40;;;;;;;;;;;;;;;;;;4993677;28;19929;-54
2022/10/10 09:03:12;;;;;;;;;;;;;;;;;;5004534;28;19926;-54
2022/10/10 09:05:46;;;;;;;;;;;;;;;;;;5013051;28;19925;-53
2022/10/10 09:08:20;;;;;;;;;;;;;;;;;;5013201;28;19979;-51
2022/10/10 09:10:51;;;;;;;;;;;;;;;;;;5012928;28;19972;-51
2022/10/10 09:13:24;;;;;;;;;;;;;;;;;;5013578;28;19929;-53
2022/10/10 09:15:54;;;;;;;;;;;;;;;;;;5012809;28;20341;-52
2022/10/10 09:18:27;;;;;;;;;;;;;;;;;;5012882;28;19925;-54
2022/10/10 09:20:58;;;;;;;;;;;;;;;;;;5012559;28;20362;-50
2022/10/10 09:23:28;;;;;;;;;;;;;;;;;;5012859;28;20349;-52
2022/10/10 09:25:57;;;;;;;;;;;;;;;;;;5012429;28;19929;-52
2022/10/10 09:28:31;;;;;;;;;;;;;;;;;;5012439;28;19926;-54
2022/10/10 09:30:59;;;;;;;;;;;;;;;;;;5012324;28;19972;-55
2022/10/10 09:33:29;;;;;;;;;;;;;;;;;;5012318;28;20386;-51
2022/10/10 09:35:56;;;;;;;;;;;;;;;;;;5012358;28;19980;-53
2022/10/10 09:38:31;;;;;;;;;;;;;;;;;;5012211;28;20412;-52
2022/10/10 09:40:59;;;;;;;;;;;;;;;;;;5012395;28;20037;-53
2022/10/10 09:43:29;;;;;;;;;;;;;;;;;;5012466;28;19926;-54
2022/10/10 09:45:56;;;;;;;;;;;;;;;;;;5012700;28;19991;-53
2022/10/10 09:48:28;;;;;;;;;;;;;;;;;;5011991;28;19995;-52
2022/10/10 09:50:55;;;;;;;;;;;;;;;;;;5012140;28;19926;-53
2022/10/10 09:53:21;;;;;;;;;;;;;;;;;;5011596;28;20349;-51
2022/10/10 09:55:50;;;;;;;;;;;;;;;;;;5011792;28;19941;-54
2022/10/10 09:58:20;;;;;;;;;;;;;;;;;;5012024;28;20394;-54
2022/10/10 10:00:46;;;;;;;;;;;;;;;;;;5011790;28;19925;-55
2022/10/10 10:03:14;;;;;;;;;;;;;;;;;;4999811;28;19930;-55
2022/10/10 10:05:43;;;;;;;;;;;;;;;;;;4992322;28;19980;-53
2022/10/10 10:08:26;;;;;;;;;;;;;;;;;;4992498;28;19929;-53
2022/10/10 10:10:57;;;;;;;;;;;;;;;;;;4991911;28;19933;-54
2022/10/10 10:13:25;;;;;;;;;;;;;;;;;;4991964;28;19936;-54
2022/10/10 10:15:55;;;;;;;;;;;;;;;;;;4991963;28;20023;-55
2022/10/10 10:18:24;;;;;;;;;;;;;;;;;;5005265;28;19925;-55
2022/10/10 10:20:52;;;;;;;;;;;;;;;;;;5011985;28;20268;-53
2022/10/10 10:23:25;;;;;;;;;;;;;;;;;;5011298;28;20307;-53
2022/10/10 10:26:00;;;;;;;;;;;;;;;;;;5011577;28;20395;-55
2022/10/10 10:28:27;;;;;;;;;;;;;;;;;;5011448;28;20354;-51
2022/10/10 10:30:54;;;;;;;;;;;;;;;;;;5011510;28;20341;-51
2022/10/10 10:33:27;;;;;;;;;;;;;;;;;;5011469;28;19987;-53
2022/10/10 10:35:57;;;;;;;;;;;;;;;;;;5011088;28;19940;-54
2022/10/10 10:38:28;;;;;;;;;;;;;;;;;;5011492;28;20359;-52
2022/10/10 10:41:00;;;;;;;;;;;;;;;;;;5011428;28;20260;-53
2022/10/10 10:43:36;;;;;;;;;;;;;;;;;;5011291;28;19971;-53
2022/10/10 10:46:20;;;;;;;;;;;;;;;;;;5011145;28;20094;-50
2022/10/10 10:48:47;;;;;;;;;;;;;;;;;;5011147;28;19926;-55
2022/10/10 10:51:20;;;;;;;;;;;;;;;;;;5011006;28;19936;-52
2022/10/10 10:53:53;;;;;;;;;;;;;;;;;;5011249;28;19925;-53
2022/10/10 10:56:23;;;;;;;;;;;;;;;;;;5010649;28;19972;-53
2022/10/10 10:59:11;;;;;;;;;;;;;;;;;;5010828;28;19929;-55
2022/10/10 11:01:44;;;;;;;;;;;;;;;;;;5007267;28;19932;-56
2022/10/10 11:04:17;;;;;;;;;;;;;;;;;;4971676;28;19934;-55
2022/10/10 11:07:03;;;;;;;;;;;;;;;;;;4971726;28;20350;-52
2022/10/10 11:09:32;;;;;;;;;;;;;;;;;;4972285;28;20298;-52
2022/10/10 11:12:11;;;;;;;;;;;;;;;;;;4971782;28;20351;-52
2022/10/10 11:14:47;;;;;;;;;;;;;;;;;;4972051;28;19926;-53
2022/10/10 11:17:19;;;;;;;;;;;;;;;;;;4972102;28;19930;-57
2022/10/10 11:19:48;;;;;;;;;;;;;;;;;;4971787;28;19926;-53
2022/10/10 11:22:16;;;;;;;;;;;;;;;;;;4971812;28;20013;-54
2022/10/10 11:24:44;;;;;;;;;;;;;;;;;;4971822;28;19933;-54
2022/10/10 11:27:13;;;;;;;;;;;;;;;;;;4971544;28;19926;-52
2022/10/10 11:29:49;;;;;;;;;;;;;;;;;;4971751;28;19933;-54
2022/10/10 11:32:19;;;;;;;;;;;;;;;;;;4971520;28;19972;-54
2022/10/10 11:34:52;;;;;;;;;;;;;;;;;;4971590;28;19980;-54
2022/10/10 11:37:21;;;;;;;;;;;;;;;;;;4971740;28;19933;-52
2022/10/10 11:39:52;;;;;;;;;;;;;;;;;;4971748;28;19926;-55
2022/10/10 11:42:21;;;;;;;;;;;;;;;;;;4971722;28;19926;-51
2022/10/10 11:44:51;;;;;;;;;;;;;;;;;;4971743;28;20031;-55
2022/10/10 11:47:21;;;;;;;;;;;;;;;;;;4971576;28;19988;-53
2022/10/10 11:49:51;;;;;;;;;;;;;;;;;;4976277;28;19930;-55
2022/10/10 11:52:21;;;;;;;;;;;;;;;;;;4999311;28;19948;-53
2022/10/10 11:54:52;;;;;;;;;;;;;;;;;;4997258;28;20008;-56
2022/10/10 11:57:21;;;;;;;;;;;;;;;;;;5004783;28;19929;-55
2022/10/10 11:59:49;;;;;;;;;;;;;;;;;;5002497;28;19930;-53
2022/10/10 12:02:19;;;;;;;;;;;;;;;;;;4990146;28;20395;-55
2022/10/10 12:04:47;;;;;;;;;;;;;;;;;;4991864;28;19977;-51
2022/10/10 12:07:16;;;;;;;;;;;;;;;;;;4992098;28;19974;-51
2022/10/10 12:09:45;;;;;;;;;;;;;;;;;;4992338;28;19930;-52
2022/10/10 12:12:13;;;;;;;;;;;;;;;;;;4991316;28;19934;-54
2022/10/10 12:14:41;;;;;;;;;;;;;;;;;;4990978;28;19929;-54
2022/10/10 12:17:18;;;;;;;;;;;;;;;;;;4994481;28;20005;-52
2022/10/10 12:19:47;;;;;;;;;;;;;;;;;;5010866;28;19929;-55
2022/10/10 12:22:22;;;;;;;;;;;;;;;;;;5013857;28;20387;-51
2022/10/10 12:25:20;;;;;;;;;;;;;;;;;;5013987;28;19977;-54
2022/10/10 12:28:01;;;;;;;;;;;;;;;;;;5013851;28;19926;-55
2022/10/10 12:30:28;;;;;;;;;;;;;;;;;;5013806;28;19979;-51
2022/10/10 12:32:55;;;;;;;;;;;;;;;;;;5013533;28;19952;-55
2022/10/10 12:35:40;;;;;;;;;;;;;;;;;;5013729;28;20045;-51
2022/10/10 12:38:18;;;;;;;;;;;;;;;;;;5013577;28;19929;-55
2022/10/10 12:41:03;;;;;;;;;;;;;;;;;;5013491;28;19976;-56
2022/10/10 12:43:37;;;;;;;;;;;;;;;;;;5006457;28;19980;-51
2022/10/10 12:46:22;;;;;;;;;;;;;;;;;;5013332;28;19929;-54
2022/10/10 12:48:57;;;;;;;;;;;;;;;;;;5013537;28;20390;-53
2022/10/10 12:51:24;;;;;;;;;;;;;;;;;;5013775;28;19925;-53
2022/10/10 12:53:53;;;;;;;;;;;;;;;;;;5013380;28;19925;-52
2022/10/10 12:56:31;;;;;;;;;;;;;;;;;;5013382;28;19932;-50
2022/10/10 12:58:59;;;;;;;;;;;;;;;;;;5013211;28;20586;-57
2022/10/10 13:01:27;;;;;;;;;;;;;;;;;;5040523;22;19979;-76
2022/10/10 13:03:54;;;;;;;;;;;;;;;;;;5033213;28;20027;-76
2022/10/10 13:06:25;;;;;;;;;;;;;;;;;;5033263;28;19972;-79
2022/10/10 13:08:54;;;;;;;;;;;;;;;;;;5033035;28;19979;-78
2022/10/10 13:11:20;;;;;;;;;;;;;;;;;;5032848;28;20003;-75
2022/10/10 13:13:49;;;;;;;;;;;;;;;;;;5032810;28;20003;-76
2022/10/10 13:16:18;;;;;;;;;;;;;;;;;;5032770;28;20362;-77
2022/10/10 13:18:49;;;;;;;;;;;;;;;;;;5032886;28;20362;-77
2022/10/10 13:21:18;;;;;;;;;;;;;;;;;;5032865;28;19932;-76
2022/10/10 13:23:46;;;;;;;;;;;;;;;;;;5032693;28;20410;-78
2022/10/10 13:26:21;;;;;;;;;;;;;;;;;;5032565;28;20028;-76
2022/10/10 13:28:47;;;;;;;;;;;;;;;;;;5032154;28;19983;-75
2022/10/10 13:31:14;;;;;;;;;;;;;;;;;;5032571;28;19931;-78
2022/10/10 13:33:41;;;;;;;;;;;;;;;;;;5032454;28;19925;-77
2022/10/10 13:36:16;;;;;;;;;;;;;;;;;;5032329;28;19931;-77
2022/10/10 13:38:45;;;;;;;;;;;;;;;;;;5032481;28;20295;-75
2022/10/10 13:41:13;;;;;;;;;;;;;;;;;;5031736;28;19929;-77
2022/10/10 13:43:41;;;;;;;;;;;;;;;;;;5031770;28;19925;-75
2022/10/10 13:46:19;;;;;;;;;;;;;;;;;;5032212;28;20474;-76
2022/10/10 13:48:45;;;;;;;;;;;;;;;;;;5032044;28;19932;-75
2022/10/10 13:51:13;;;;;;;;;;;;;;;;;;5032002;28;20012;-75
2022/10/10 13:53:52;;;;;;;;;;;;;;;;;;5031432;28;20303;-77
2022/10/10 13:56:26;;;;;;;;;;;;;;;;;;5032111;28;19925;-76
2022/10/10 13:58:56;;;;;;;;;;;;;;;;;;5031722;28;20024;-75
2022/10/10 14:01:28;;;;;;;;;;;;;;;;;;5031787;28;20008;-76
2022/10/10 14:03:56;;;;;;;;;;;;;;;;;;5048881;28;19979;-76
2022/10/10 14:06:24;;;;;;;;;;;;;;;;;;5051930;28;19948;-75
2022/10/10 14:08:51;;;;;;;;;;;;;;;;;;5051458;28;20011;-77
2022/10/10 14:11:20;;;;;;;;;;;;;;;;;;5051405;28;19993;-77
2022/10/10 14:13:48;;;;;;;;;;;;;;;;;;5051369;28;20375;-76
2022/10/10 14:16:23;;;;;;;;;;;;;;;;;;5051484;28;19947;-74
2022/10/10 14:18:49;;;;;;;;;;;;;;;;;;5051432;28;20418;-77
2022/10/10 14:21:16;;;;;;;;;;;;;;;;;;5051388;28;20395;-76
2022/10/10 14:23:42;;;;;;;;;;;;;;;;;;5051367;28;20414;-75
2022/10/10 14:26:11;;;;;;;;;;;;;;;;;;5051384;28;19929;-76
2022/10/10 14:28:38;;;;;;;;;;;;;;;;;;5050897;28;20540;-76
2022/10/10 14:31:05;;;;;;;;;;;;;;;;;;5051082;28;19931;-75
2022/10/10 14:33:32;;;;;;;;;;;;;;;;;;5051138;28;19932;-75
2022/10/10 14:35:59;;;;;;;;;;;;;;;;;;5051118;28;19925;-76
2022/10/10 14:38:26;;;;;;;;;;;;;;;;;;5049946;28;19932;-76
2022/10/10 14:40:53;;;;;;;;;;;;;;;;;;5050737;28;20058;-76
2022/10/10 14:43:21;;;;;;;;;;;;;;;;;;5050455;28;19931;-76
2022/10/10 14:45:49;;;;;;;;;;;;;;;;;;5050752;28;19929;-75
2022/10/10 14:48:15;;;;;;;;;;;;;;;;;;5050556;28;19929;-76
2022/10/10 14:50:44;;;;;;;;;;;;;;;;;;5050825;28;20031;-76
2022/10/10 14:53:11;;;;;;;;;;;;;;;;;;5050666;28;19956;-76
2022/10/10 14:55:41;;;;;;;;;;;;;;;;;;5050925;28;19924;-75
2022/10/10 14:58:09;;;;;;;;;;;;;;;;;;5050377;28;20283;-75
2022/10/10 15:00:35;;;;;;;;;;;;;;;;;;5049984;28;20011;-75
2022/10/10 15:03:01;;;;;;;;;;;;;;;;;;5039885;28;20040;-75
2022/10/10 15:05:28;;;;;;;;;;;;;;;;;;5030486;28;20019;-75
2022/10/10 15:07:56;;;;;;;;;;;;;;;;;;5030430;28;20024;-75
2022/10/10 15:10:22;;;;;;;;;;;;;;;;;;5030617;28;19936;-76
2022/10/10 15:12:49;;;;;;;;;;;;;;;;;;5030297;28;19925;-76
2022/10/10 15:15:15;;;;;;;;;;;;;;;;;;5030805;28;19925;-75
2022/10/10 15:17:42;;;;;;;;;;;;;;;;;;5030596;28;20029;-75
2022/10/10 15:20:09;;;;;;;;;;;;;;;;;;5030604;28;19932;-75
2022/10/10 15:22:36;;;;;;;;;;;;;;;;;;5030185;28;20016;-75
2022/10/10 15:25:04;;;;;;;;;;;;;;;;;;5030440;28;19925;-74
2022/10/10 15:27:31;;;;;;;;;;;;;;;;;;5030703;28;20003;-75
2022/10/10 15:29:58;;;;;;;;;;;;;;;;;;5031317;28;19926;-76
2022/10/10 15:32:24;;;;;;;;;;;;;;;;;;5030740;28;20419;-75
2022/10/10 15:34:51;;;;;;;;;;;;;;;;;;5030352;28;20356;-75
2022/10/10 15:37:18;;;;;;;;;;;;;;;;;;5030189;28;20024;-75
2022/10/10 15:39:45;;;;;;;;;;;;;;;;;;5030390;28;20022;-74
2022/10/10 15:42:13;;;;;;;;;;;;;;;;;;5030138;28;19979;-75
2022/10/10 15:44:43;;;;;;;;;;;;;;;;;;5030082;28;20346;-74
2022/10/10 15:47:10;;;;;;;;;;;;;;;;;;5029761;28;19976;-75
2022/10/10 15:49:38;;;;;;;;;;;;;;;;;;5029879;28;20012;-75
2022/10/10 15:52:04;;;;;;;;;;;;;;;;;;5033849;28;19932;-76
2022/10/10 15:54:30;;;;;;;;;;;;;;;;;;5033781;28;20012;-75
2022/10/10 15:56:57;;;;;;;;;;;;;;;;;;5034181;28;20020;-75
2022/10/10 15:59:25;;;;;;;;;;;;;;;;;;5034833;28;19972;-75
2022/10/10 16:01:53;;;;;;;;;;;;;;;;;;5042818;28;19985;-75
2022/10/10 16:04:21;;;;;;;;;;;;;;;;;;5036998;28;19925;-76
2022/10/10 16:06:47;;;;;;;;;;;;;;;;;;5033949;28;19968;-77
2022/10/10 16:09:14;;;;;;;;;;;;;;;;;;5034451;28;19932;-76
2022/10/10 16:11:40;;;;;;;;;;;;;;;;;;5034296;28;19972;-76
2022/10/10 16:14:07;;;;;;;;;;;;;;;;;;5034320;28;20073;-76
2022/10/10 16:16:34;;;;;;;;;;;;;;;;;;5034058;28;20012;-76
2022/10/10 16:19:01;;;;;;;;;;;;;;;;;;5033755;28;19935;-76
2022/10/10 16:21:28;;;;;;;;;;;;;;;;;;5033456;28;20004;-76
2022/10/10 16:23:56;;;;;;;;;;;;;;;;;;5033831;28;19980;-77
2022/10/10 16:26:27;;;;;;;;;;;;;;;;;;5033897;28;19983;-76
2022/10/10 16:28:54;;;;;;;;;;;;;;;;;;5033708;28;20024;-76
2022/10/10 16:31:21;;;;;;;;;;;;;;;;;;5033808;28;20020;-78
2022/10/10 16:33:49;;;;;;;;;;;;;;;;;;5033747;28;19931;-76
2022/10/10 16:36:16;;;;;;;;;;;;;;;;;;5033513;28;19941;-76
2022/10/10 16:38:43;;;;;;;;;;;;;;;;;;5033818;28;20013;-75
2022/10/10 16:41:11;;;;;;;;;;;;;;;;;;5034048;28;19935;-77
2022/10/10 16:43:38;;;;;;;;;;;;;;;;;;5033742;28;20016;-77
2022/10/10 16:46:05;;;;;;;;;;;;;;;;;;5033759;28;19964;-77
2022/10/10 16:48:32;;;;;;;;;;;;;;;;;;5033472;28;19964;-76
2022/10/10 16:51:02;;;;;;;;;;;;;;;;;;5033720;28;19925;-76
2022/10/10 16:53:29;;;;;;;;;;;;;;;;;;5033391;28;19931;-77
2022/10/10 16:55:57;;;;;;;;;;;;;;;;;;5033190;28;20375;-76